createdAt,value
2022-08-16T00:00:04.581Z,26.13
2022-08-16T00:01:07.526Z,26.14
2022-08-16T00:02:12.995Z,26.31
2022-08-16T00:03:16.807Z,26.51
2022-08-16T00:04:19.626Z,26.41
2022-08-16T00:05:25.270Z,26.67
2022-08-16T00:06:29.815Z,26.46
2022-08-16T00:07:32.011Z,26.51
2022-08-16T00:08:36.836Z,26.50
2022-08-16T00:09:41.740Z,26.66
2022-08-16T00:10:44.338Z,26.51
2022-08-16T00:11:46.958Z,26.56
2022-08-16T00:12:55.899Z,26.62
2022-08-16T00:13:58.902Z,26.57
2022-08-16T00:15:11.718Z,26.73
2022-08-16T00:17:00.548Z,26.29
2022-08-16T00:17:56.484Z,26.35
2022-08-16T00:18:59.909Z,26.32
2022-08-16T00:20:02.158Z,26.22
2022-08-16T00:21:06.178Z,26.28
2022-08-16T00:22:13.790Z,26.52
2022-08-16T00:23:17.843Z,26.34
2022-08-16T00:24:32.373Z,26.52
2022-08-16T00:26:35.445Z,26.40
2022-08-16T00:26:58.092Z,26.37
2022-08-16T00:28:00.820Z,26.41
2022-08-16T00:29:04.432Z,26.46
2022-08-16T00:30:19.464Z,26.52
2022-08-16T00:31:58.647Z,26.41
2022-08-16T00:32:57.646Z,26.54
2022-08-16T00:34:00.126Z,26.36
2022-08-16T00:35:15.336Z,26.51
2022-08-16T00:36:18.762Z,26.37
2022-08-16T00:37:24.555Z,26.41
2022-08-16T00:38:40.768Z,25.95
2022-08-16T00:39:47.097Z,26.31
2022-08-16T00:40:53.722Z,26.43
2022-08-16T00:41:56.372Z,26.05
2022-08-16T00:42:58.567Z,26.10
2022-08-16T00:44:10.703Z,26.41
2022-08-16T00:45:27.714Z,26.06
2022-08-16T00:46:35.521Z,26.04
2022-08-16T00:47:49.312Z,26.04
2022-08-16T00:48:52.480Z,25.93
2022-08-16T00:49:56.701Z,25.81
2022-08-16T00:51:02.668Z,26.21
2022-08-16T00:52:05.401Z,25.67
2022-08-16T00:53:30.947Z,25.74
2022-08-16T00:54:33.502Z,25.80
2022-08-16T00:55:38.969Z,25.88
2022-08-16T00:56:57.494Z,25.92
2022-08-16T00:58:01.361Z,25.62
2022-08-16T00:59:05.771Z,25.95
2022-08-16T01:00:09.340Z,25.86
2022-08-16T01:01:13.455Z,25.97
2022-08-16T01:02:31.209Z,25.71
2022-08-16T01:03:36.122Z,25.96
2022-08-16T01:04:38.359Z,25.84
2022-08-16T01:05:43.229Z,25.52
2022-08-16T01:06:49.138Z,25.26
2022-08-16T01:08:35.931Z,25.74
2022-08-16T01:09:33.679Z,25.79
2022-08-16T01:10:38.090Z,25.80
2022-08-16T01:11:54.036Z,25.92
2022-08-16T01:13:04.594Z,25.92
2022-08-16T01:14:20.066Z,25.95
2022-08-16T01:15:24.265Z,25.85
2022-08-16T01:16:28.732Z,25.83
2022-08-16T01:17:36.940Z,25.91
2022-08-16T01:18:54.670Z,26.13
2022-08-16T01:20:01.708Z,26.02
2022-08-16T01:21:33.236Z,26.23
2022-08-16T01:22:52.330Z,25.86
2022-08-16T01:24:51.775Z,26.32
2022-08-16T01:25:42.749Z,26.29
2022-08-16T01:26:49.398Z,26.15
2022-08-16T01:27:56.603Z,26.16
2022-08-16T01:29:02.664Z,26.21
2022-08-16T01:30:19.332Z,26.17
2022-08-16T01:31:29.761Z,25.75
2022-08-16T01:32:38.604Z,25.94
2022-08-16T01:33:44.663Z,25.81
2022-08-16T01:34:47.757Z,25.70
2022-08-16T01:36:11.635Z,26.21
2022-08-16T01:37:16.245Z,25.97
2022-08-16T01:38:19.854Z,25.77
2022-08-16T01:39:24.080Z,25.85
2022-08-16T01:40:28.860Z,26.06
2022-08-16T01:41:31.441Z,25.59
2022-08-16T01:42:37.211Z,25.89
2022-08-16T01:43:46.995Z,26.08
2022-08-16T01:44:57.550Z,25.94
2022-08-16T01:46:37.052Z,26.15
2022-08-16T01:47:30.310Z,26.06
2022-08-16T01:48:35.480Z,25.86
2022-08-16T01:49:45.746Z,26.14
2022-08-16T01:51:09.465Z,25.84
2022-08-16T01:52:29.533Z,25.79
2022-08-16T01:53:58.711Z,25.60
2022-08-16T01:55:08.381Z,25.63
2022-08-16T01:56:24.538Z,25.63
2022-08-16T01:57:31.722Z,25.62
2022-08-16T01:58:34.191Z,25.42
2022-08-16T01:59:41.180Z,25.53
2022-08-16T02:00:48.017Z,25.70
2022-08-16T02:01:59.492Z,25.85
2022-08-16T02:03:04.221Z,25.69
2022-08-16T02:04:10.955Z,25.71
2022-08-16T02:05:13.914Z,25.70
2022-08-16T02:06:34.786Z,25.79
2022-08-16T02:07:44.028Z,25.71
2022-08-16T02:08:49.278Z,25.70
2022-08-16T02:09:58.588Z,25.87
2022-08-16T02:11:13.967Z,26.01
2022-08-16T02:12:49.742Z,25.93
2022-08-16T02:13:43.357Z,25.90
2022-08-16T02:14:50.875Z,25.76
2022-08-16T02:15:53.467Z,25.75
2022-08-16T02:16:57.855Z,25.96
2022-08-16T02:18:01.600Z,25.92
2022-08-16T02:19:04.536Z,25.82
2022-08-16T02:20:19.759Z,25.86
2022-08-16T02:21:31.312Z,25.94
2022-08-16T02:23:11.454Z,26.20
2022-08-16T02:24:32.192Z,25.85
2022-08-16T02:25:52.769Z,25.84
2022-08-16T02:26:57.007Z,25.92
2022-08-16T02:28:01.665Z,26.01
2022-08-16T02:29:03.986Z,25.84
2022-08-16T02:30:09.649Z,26.10
2022-08-16T02:32:02.742Z,25.88
2022-08-16T02:32:54.550Z,25.82
2022-08-16T02:33:58.219Z,25.84
2022-08-16T02:35:11.287Z,26.03
2022-08-16T02:36:47.075Z,26.03
2022-08-16T02:37:51.466Z,25.91
2022-08-16T02:38:58.789Z,25.93
2022-08-16T02:40:02.626Z,25.93
2022-08-16T02:41:09.558Z,26.01
2022-08-16T02:42:13.165Z,25.96
2022-08-16T02:43:16.054Z,26.03
2022-08-16T02:44:18.701Z,25.99
2022-08-16T02:45:27.853Z,26.18
2022-08-16T02:46:33.606Z,25.97
2022-08-16T02:48:00.663Z,25.98
2022-08-16T02:49:01.678Z,26.18
2022-08-16T02:50:54.882Z,26.11
2022-08-16T02:51:27.491Z,26.02
2022-08-16T02:52:29.730Z,26.03
2022-08-16T02:53:43.830Z,26.27
2022-08-16T02:54:47.505Z,25.99
2022-08-16T02:55:59.204Z,26.45
2022-08-16T02:57:02.894Z,26.03
2022-08-16T02:58:06.206Z,26.03
2022-08-16T02:59:11.472Z,26.11
2022-08-16T03:00:33.754Z,26.07
2022-08-16T03:01:39.069Z,26.09
2022-08-16T03:02:48.109Z,26.01
2022-08-16T03:04:46.312Z,26.14
2022-08-16T03:05:22.529Z,25.98
2022-08-16T03:06:41.543Z,26.10
2022-08-16T03:07:53.114Z,26.03
2022-08-16T03:08:55.773Z,26.05
2022-08-16T03:10:00.705Z,26.07
2022-08-16T03:11:04.952Z,26.02
2022-08-16T03:12:08.019Z,26.11
2022-08-16T03:13:12.225Z,26.02
2022-08-16T03:14:21.296Z,26.06
2022-08-16T03:15:30.766Z,26.07
2022-08-16T03:16:38.995Z,26.09
2022-08-16T03:17:57.354Z,26.10
2022-08-16T03:19:01.934Z,26.08
2022-08-16T03:20:07.023Z,26.27
2022-08-16T03:21:14.680Z,26.08
2022-08-16T03:22:27.775Z,26.26
2022-08-16T03:23:35.810Z,26.12
2022-08-16T03:24:38.292Z,26.11
2022-08-16T03:25:43.967Z,26.11
2022-08-16T03:26:46.983Z,26.08
2022-08-16T03:27:49.221Z,26.11
2022-08-16T03:28:52.831Z,26.10
2022-08-16T03:29:55.977Z,26.06
2022-08-16T03:30:59.600Z,26.01
2022-08-16T03:32:04.182Z,26.04
2022-08-16T03:33:07.491Z,25.98
2022-08-16T03:34:15.690Z,25.93
2022-08-16T03:35:21.775Z,26.18
2022-08-16T03:36:31.222Z,25.89
2022-08-16T03:38:02.506Z,25.93
2022-08-16T03:39:06.178Z,25.92
2022-08-16T03:40:31.477Z,25.89
2022-08-16T03:41:50.413Z,25.87
2022-08-16T03:43:00.388Z,25.92
2022-08-16T03:44:43.386Z,26.01
2022-08-16T03:45:40.955Z,26.22
2022-08-16T03:46:48.215Z,25.99
2022-08-16T03:48:03.062Z,26.00
2022-08-16T03:49:12.224Z,25.95
2022-08-16T03:50:25.745Z,25.90
2022-08-16T03:51:28.995Z,25.88
2022-08-16T03:52:37.297Z,25.84
2022-08-16T03:53:57.622Z,25.97
2022-08-16T03:55:05.122Z,26.15
2022-08-16T03:56:19.511Z,25.92
2022-08-16T03:57:22.525Z,25.91
2022-08-16T03:58:25.138Z,25.86
2022-08-16T03:59:30.280Z,25.86
2022-08-16T04:00:42.322Z,25.86
2022-08-16T04:01:49.881Z,25.88
2022-08-16T04:02:58.676Z,26.15
2022-08-16T04:04:01.267Z,25.93
2022-08-16T04:05:06.054Z,26.08
2022-08-16T04:06:09.229Z,25.93
2022-08-16T04:07:12.083Z,25.91
2022-08-16T04:08:23.263Z,25.86
2022-08-16T04:09:28.770Z,25.88
2022-08-16T04:10:37.190Z,25.92
2022-08-16T04:11:40.533Z,25.95
2022-08-16T04:12:53.824Z,26.11
2022-08-16T04:14:08.824Z,25.78
2022-08-16T04:15:21.579Z,25.84
2022-08-16T04:16:36.620Z,25.87
2022-08-16T04:17:59.817Z,26.10
2022-08-16T04:19:04.407Z,25.76
2022-08-16T04:20:23.666Z,25.89
2022-08-16T04:21:36.334Z,26.14
2022-08-16T04:22:52.385Z,26.00
2022-08-16T04:23:56.181Z,25.96
2022-08-16T04:24:59.137Z,25.96
2022-08-16T04:26:07.644Z,26.20
2022-08-16T04:27:19.513Z,26.03
2022-08-16T04:28:52.231Z,25.99
2022-08-16T04:29:46.650Z,25.82
2022-08-16T04:30:52.153Z,25.96
2022-08-16T04:31:57.981Z,25.91
2022-08-16T04:33:06.734Z,26.06
2022-08-16T04:34:11.142Z,26.00
2022-08-16T04:35:18.533Z,26.29
2022-08-16T04:36:23.026Z,26.02
2022-08-16T04:37:25.865Z,25.86
2022-08-16T04:38:35.251Z,25.91
2022-08-16T04:39:47.014Z,26.11
2022-08-16T04:40:59.159Z,25.99
2022-08-16T04:42:11.400Z,26.12
2022-08-16T04:43:17.450Z,26.12
2022-08-16T04:44:32.600Z,26.09
2022-08-16T04:45:43.107Z,26.23
2022-08-16T04:47:02.749Z,26.13
2022-08-16T04:48:06.957Z,26.14
2022-08-16T04:49:17.880Z,26.54
2022-08-16T04:50:30.347Z,26.37
2022-08-16T04:51:35.815Z,26.25
2022-08-16T04:52:39.073Z,26.26
2022-08-16T04:53:42.513Z,26.19
2022-08-16T04:54:44.865Z,26.21
2022-08-16T04:55:47.337Z,26.22
2022-08-16T04:56:56.899Z,26.25
2022-08-16T04:58:00.538Z,26.33
2022-08-16T04:59:04.930Z,26.31
2022-08-16T05:00:30.989Z,26.53
2022-08-16T05:01:58.750Z,26.35
2022-08-16T05:03:07.408Z,26.49
2022-08-16T05:04:19.300Z,26.21
2022-08-16T05:05:24.078Z,26.41
2022-08-16T05:06:41.978Z,26.44
2022-08-16T05:07:58.412Z,26.41
2022-08-16T05:09:03.220Z,26.43
2022-08-16T05:10:19.850Z,26.64
2022-08-16T05:11:32.143Z,26.39
2022-08-16T05:12:35.268Z,26.50
2022-08-16T05:13:42.345Z,26.64
2022-08-16T05:15:01.726Z,26.14
2022-08-16T05:16:30.884Z,26.82
2022-08-16T05:17:39.696Z,26.48
2022-08-16T05:18:46.543Z,26.47
2022-08-16T05:19:57.617Z,26.55
2022-08-16T05:21:11.411Z,26.37
2022-08-16T05:22:18.608Z,26.43
2022-08-16T05:23:31.730Z,26.47
2022-08-16T05:24:36.056Z,25.85
2022-08-16T05:25:41.009Z,26.23
2022-08-16T05:26:51.584Z,26.37
2022-08-16T05:27:57.566Z,26.41
2022-08-16T05:29:03.631Z,26.50
2022-08-16T05:30:36.995Z,26.57
2022-08-16T05:31:31.877Z,26.61
2022-08-16T05:32:45.619Z,26.70
2022-08-16T05:33:53.636Z,26.67
2022-08-16T05:34:59.377Z,26.67
2022-08-16T05:36:03.819Z,26.66
2022-08-16T05:37:08.387Z,26.86
2022-08-16T05:38:30.893Z,26.89
2022-08-16T05:39:37.687Z,26.91
2022-08-16T05:40:43.795Z,26.94
2022-08-16T05:42:02.829Z,27.03
2022-08-16T05:43:05.700Z,27.18
2022-08-16T05:44:22.965Z,27.30
2022-08-16T05:45:28.123Z,27.31
2022-08-16T05:46:35.293Z,27.36
2022-08-16T05:48:00.413Z,27.40
2022-08-16T05:49:38.674Z,27.63
2022-08-16T05:50:44.674Z,27.35
2022-08-16T05:51:55.738Z,27.54
2022-08-16T05:52:58.690Z,27.61
2022-08-16T05:54:03.760Z,27.55
2022-08-16T05:55:06.633Z,27.58
2022-08-16T05:56:12.172Z,27.57
2022-08-16T05:57:21.993Z,27.48
2022-08-16T05:58:32.780Z,27.60
2022-08-16T05:59:36.928Z,27.36
2022-08-16T06:00:39.898Z,27.64
2022-08-16T06:01:44.630Z,27.90
2022-08-16T06:02:47.982Z,27.99
2022-08-16T06:04:13.299Z,28.37
2022-08-16T06:05:36.206Z,27.81
2022-08-16T06:06:56.386Z,28.20
2022-08-16T06:07:59.614Z,28.21
2022-08-16T06:09:07.605Z,27.74
2022-08-16T06:10:12.737Z,28.13
2022-08-16T06:11:15.078Z,27.96
2022-08-16T06:12:27.289Z,27.87
2022-08-16T06:13:34.079Z,27.96
2022-08-16T06:14:36.717Z,28.24
2022-08-16T06:15:42.514Z,28.42
2022-08-16T06:16:50.575Z,28.42
2022-08-16T06:17:54.103Z,28.45
2022-08-16T06:19:04.725Z,28.22
2022-08-16T06:20:10.612Z,28.60
2022-08-16T06:21:14.849Z,28.65
2022-08-16T06:22:49.055Z,28.77
2022-08-16T06:23:54.094Z,28.78
2022-08-16T06:24:57.144Z,28.71
2022-08-16T06:25:59.440Z,28.86
2022-08-16T06:27:07.072Z,29.03
2022-08-16T06:28:17.243Z,29.07
2022-08-16T06:29:34.539Z,29.09
2022-08-16T06:30:43.822Z,29.14
2022-08-16T06:31:46.848Z,28.93
2022-08-16T06:32:53.884Z,28.90
2022-08-16T06:33:57.551Z,28.77
2022-08-16T06:35:03.359Z,28.91
2022-08-16T06:36:09.809Z,28.95
2022-08-16T06:37:14.135Z,28.81
2022-08-16T06:38:33.959Z,28.90
2022-08-16T06:39:49.571Z,28.79
2022-08-16T06:41:14.774Z,28.96
2022-08-16T06:42:19.139Z,29.04
2022-08-16T06:43:39.924Z,28.74
2022-08-16T06:44:49.008Z,28.84
2022-08-16T06:46:37.679Z,29.15
2022-08-16T06:47:52.852Z,28.68
2022-08-16T06:48:56.398Z,28.42
2022-08-16T06:49:59.813Z,28.20
2022-08-16T06:51:11.609Z,28.03
2022-08-16T06:53:00.519Z,28.11
2022-08-16T06:53:42.902Z,28.33
2022-08-16T06:54:46.310Z,27.98
2022-08-16T06:55:55.915Z,27.60
2022-08-16T06:56:59.112Z,27.76
2022-08-16T06:58:08.354Z,27.86
2022-08-16T06:59:25.691Z,28.01
2022-08-16T07:00:31.041Z,28.12
2022-08-16T07:01:43.051Z,28.07
2022-08-16T07:02:51.384Z,28.46
2022-08-16T07:03:57.425Z,28.66
2022-08-16T07:05:14.934Z,28.58
2022-08-16T07:06:26.629Z,28.47
2022-08-16T07:07:36.393Z,28.75
2022-08-16T07:08:42.431Z,28.47
2022-08-16T07:09:44.887Z,27.89
2022-08-16T07:10:48.217Z,28.31
2022-08-16T07:11:51.737Z,28.37
2022-08-16T07:13:11.549Z,28.18
2022-08-16T07:14:25.684Z,28.56
2022-08-16T07:15:31.652Z,28.79
2022-08-16T07:16:34.380Z,28.80
2022-08-16T07:17:36.945Z,28.71
2022-08-16T07:18:39.440Z,28.43
2022-08-16T07:20:35.277Z,29.19
2022-08-16T07:21:46.691Z,29.04
2022-08-16T07:22:58.984Z,29.19
2022-08-16T07:24:11.080Z,29.10
2022-08-16T07:25:34.943Z,29.37
2022-08-16T07:26:48.542Z,29.53
2022-08-16T07:27:51.838Z,29.20
2022-08-16T07:28:57.478Z,29.29
2022-08-16T07:29:59.711Z,29.17
2022-08-16T07:31:03.229Z,29.17
2022-08-16T07:32:09.546Z,29.12
2022-08-16T07:33:16.351Z,29.00
2022-08-16T07:34:19.646Z,29.24
2022-08-16T07:35:44.227Z,29.30
2022-08-16T07:36:58.222Z,29.12
2022-08-16T07:38:07.427Z,29.19
2022-08-16T07:39:19.513Z,29.21
2022-08-16T07:40:32.085Z,29.28
2022-08-16T07:41:44.515Z,29.24
2022-08-16T07:42:46.919Z,29.41
2022-08-16T07:43:49.386Z,29.51
2022-08-16T07:44:54.390Z,29.20
2022-08-16T07:45:57.466Z,29.47
2022-08-16T07:47:00.905Z,29.67
2022-08-16T07:48:11.420Z,29.75
2022-08-16T07:49:18.264Z,29.86
2022-08-16T07:50:55.809Z,29.96
2022-08-16T07:51:43.791Z,30.03
2022-08-16T07:52:47.305Z,30.14
2022-08-16T07:54:02.726Z,29.82
2022-08-16T07:55:15.628Z,29.75
2022-08-16T07:56:19.688Z,29.84
2022-08-16T07:57:24.024Z,30.01
2022-08-16T07:58:34.153Z,29.87
2022-08-16T07:59:45.803Z,29.81
2022-08-16T08:00:49.179Z,29.92
2022-08-16T08:01:53.299Z,30.04
2022-08-16T08:02:57.133Z,29.57
2022-08-16T08:03:59.798Z,29.34
2022-08-16T08:05:09.946Z,29.77
2022-08-16T08:06:13.906Z,29.55
2022-08-16T08:07:18.024Z,29.82
2022-08-16T08:08:49.550Z,30.04
2022-08-16T08:09:46.237Z,30.18
2022-08-16T08:10:48.461Z,30.29
2022-08-16T08:11:59.734Z,30.27
2022-08-16T08:13:08.621Z,30.00
2022-08-16T08:14:29.725Z,29.93
2022-08-16T08:15:34.615Z,30.38
2022-08-16T08:16:39.849Z,30.28
2022-08-16T08:17:54.548Z,30.54
2022-08-16T08:19:03.961Z,30.55
2022-08-16T08:20:10.808Z,30.72
2022-08-16T08:21:14.090Z,30.66
2022-08-16T08:22:19.394Z,30.49
2022-08-16T08:23:31.132Z,30.16
2022-08-16T08:24:35.152Z,30.39
2022-08-16T08:25:53.932Z,30.68
2022-08-16T08:27:03.994Z,30.96
2022-08-16T08:28:10.887Z,30.88
2022-08-16T08:29:14.008Z,30.73
2022-08-16T08:30:50.572Z,30.66
2022-08-16T08:31:42.206Z,30.21
2022-08-16T08:32:59.761Z,30.60
2022-08-16T08:34:06.767Z,30.95
2022-08-16T08:35:11.731Z,30.75
2022-08-16T08:36:25.012Z,31.58
2022-08-16T08:37:54.833Z,31.34
2022-08-16T08:39:00.831Z,31.76
2022-08-16T08:40:08.861Z,32.19
2022-08-16T08:41:11.205Z,31.80
2022-08-16T08:42:15.681Z,32.08
2022-08-16T08:43:28.154Z,31.91
2022-08-16T08:44:34.968Z,32.22
2022-08-16T08:45:53.059Z,32.24
2022-08-16T08:47:00.491Z,32.06
2022-08-16T08:48:05.907Z,32.12
2022-08-16T08:49:09.644Z,32.05
2022-08-16T08:50:31.959Z,32.17
2022-08-16T08:51:38.265Z,31.56
2022-08-16T08:52:47.807Z,32.19
2022-08-16T08:53:57.761Z,32.11
2022-08-16T08:55:09.532Z,32.41
2022-08-16T08:56:22.606Z,32.20
2022-08-16T08:57:29.122Z,32.40
2022-08-16T08:58:54.923Z,32.27
2022-08-16T09:00:14.298Z,32.62
2022-08-16T09:01:31.810Z,32.79
2022-08-16T09:02:38.989Z,33.03
2022-08-16T09:03:41.286Z,33.46
2022-08-16T09:04:47.788Z,33.78
2022-08-16T09:05:53.042Z,33.47
2022-08-16T09:06:58.480Z,34.20
2022-08-16T09:08:05.984Z,34.14
2022-08-16T09:09:26.559Z,34.80
2022-08-16T09:10:39.496Z,35.32
2022-08-16T09:11:45.672Z,35.07
2022-08-16T09:12:50.928Z,35.15
2022-08-16T09:14:00.875Z,34.82
2022-08-16T09:15:04.233Z,35.69
2022-08-16T09:16:07.425Z,35.77
2022-08-16T09:17:38.313Z,35.81
2022-08-16T09:18:37.840Z,36.18
2022-08-16T09:19:42.172Z,36.35
2022-08-16T09:20:59.646Z,36.98
2022-08-16T09:22:03.896Z,36.92
2022-08-16T09:23:07.014Z,36.39
2022-08-16T09:24:35.162Z,37.20
2022-08-16T09:25:39.692Z,37.27
2022-08-16T09:26:48.907Z,38.28
2022-08-16T09:27:58.070Z,37.35
2022-08-16T09:29:16.162Z,37.78
2022-08-16T09:30:33.915Z,39.09
2022-08-16T09:31:41.000Z,40.12
2022-08-16T09:32:46.988Z,40.41
2022-08-16T09:33:51.994Z,40.05
2022-08-16T09:34:54.438Z,40.72
2022-08-16T09:36:01.198Z,40.43
2022-08-16T09:37:03.510Z,40.17
2022-08-16T09:38:31.297Z,40.20
2022-08-16T09:39:42.149Z,39.90
2022-08-16T09:40:47.462Z,40.30
2022-08-16T09:41:53.252Z,40.96
2022-08-16T09:42:59.506Z,41.50
2022-08-16T09:45:09.246Z,41.13
2022-08-16T09:45:28.886Z,41.80
2022-08-16T09:46:44.820Z,42.10
2022-08-16T09:47:57.247Z,42.47
2022-08-16T09:49:03.265Z,42.61
2022-08-16T09:50:11.997Z,43.06
2022-08-16T09:51:14.366Z,41.61
2022-08-16T09:52:16.774Z,41.30
2022-08-16T09:53:23.084Z,40.93
2022-08-16T09:54:32.421Z,41.37
2022-08-16T09:55:44.470Z,41.94
2022-08-16T09:56:52.511Z,41.78
2022-08-16T09:57:57.577Z,42.19
2022-08-16T09:59:05.386Z,42.01
2022-08-16T10:00:44.425Z,42.73
2022-08-16T10:01:34.583Z,42.80
2022-08-16T10:02:42.962Z,43.15
2022-08-16T10:04:02.013Z,42.94
2022-08-16T10:05:06.570Z,41.55
2022-08-16T10:06:11.270Z,41.35
2022-08-16T10:07:16.068Z,41.22
2022-08-16T10:08:25.301Z,40.85
2022-08-16T10:09:53.874Z,41.90
2022-08-16T10:11:09.755Z,40.84
2022-08-16T10:12:30.367Z,41.47
2022-08-16T10:13:34.412Z,41.63
2022-08-16T10:14:36.833Z,42.27
2022-08-16T10:15:47.984Z,42.65
2022-08-16T10:17:02.346Z,42.34
2022-08-16T10:18:56.270Z,42.28
2022-08-16T10:19:31.868Z,42.57
2022-08-16T10:20:40.348Z,42.83
2022-08-16T10:21:43.122Z,43.70
2022-08-16T10:22:45.981Z,43.61
2022-08-16T10:23:49.495Z,43.40
2022-08-16T10:24:59.631Z,43.45
2022-08-16T10:27:16.984Z,42.15
2022-08-16T10:27:27.255Z,41.33
2022-08-16T10:28:32.634Z,41.51
2022-08-16T10:30:00.098Z,42.02
2022-08-16T10:31:05.680Z,40.98
2022-08-16T10:32:08.787Z,41.19
2022-08-16T10:33:13.897Z,42.19
2022-08-16T10:34:30.772Z,42.29
2022-08-16T10:35:34.240Z,42.82
2022-08-16T10:36:48.651Z,42.32
2022-08-16T10:37:56.918Z,43.06
2022-08-16T10:39:00.214Z,42.49
2022-08-16T10:40:02.775Z,42.23
2022-08-16T10:41:07.087Z,41.11
2022-08-16T10:42:13.261Z,42.25
2022-08-16T10:43:18.300Z,42.11
2022-08-16T10:44:21.093Z,42.64
2022-08-16T10:45:23.512Z,42.89
2022-08-16T10:46:39.126Z,42.21
2022-08-16T10:47:42.761Z,43.80
2022-08-16T10:48:46.911Z,43.74
2022-08-16T10:49:50.117Z,42.85
2022-08-16T10:50:52.473Z,42.94
2022-08-16T10:52:03.272Z,42.23
2022-08-16T10:53:18.074Z,43.76
2022-08-16T10:54:28.579Z,44.09
2022-08-16T10:55:40.701Z,44.01
2022-08-16T10:56:55.613Z,44.08
2022-08-16T10:58:01.793Z,44.59
2022-08-16T10:59:39.241Z,43.92
2022-08-16T11:00:40.290Z,43.81
2022-08-16T11:01:44.096Z,43.73
2022-08-16T11:02:59.535Z,42.83
2022-08-16T11:05:04.521Z,42.92
2022-08-16T11:08:35.141Z,43.51
2022-08-16T11:09:43.870Z,44.25
2022-08-16T11:11:04.665Z,43.33
2022-08-16T11:12:13.521Z,40.44
2022-08-16T11:13:57.448Z,40.22
2022-08-16T11:17:32.686Z,39.39
2022-08-16T11:19:03.043Z,38.78
2022-08-16T11:20:40.771Z,39.46
2022-08-16T11:21:29.027Z,38.28
2022-08-16T11:22:46.994Z,38.76
2022-08-16T11:23:58.377Z,39.49
2022-08-16T11:26:07.453Z,40.60
2022-08-16T11:26:24.570Z,41.72
2022-08-16T11:27:35.412Z,42.34
2022-08-16T11:30:01.007Z,43.14
2022-08-16T11:31:03.505Z,41.95
2022-08-16T11:32:06.567Z,40.61
2022-08-16T11:33:10.617Z,39.48
2022-08-16T11:34:14.180Z,40.54
2022-08-16T11:35:43.524Z,41.48
2022-08-16T11:36:53.831Z,42.38
2022-08-16T11:38:47.315Z,42.76
2022-08-16T11:39:35.308Z,41.46
2022-08-16T11:40:52.199Z,42.32
2022-08-16T11:41:57.248Z,41.72
2022-08-16T11:43:01.400Z,41.76
2022-08-16T11:44:07.252Z,41.77
2022-08-16T11:45:11.118Z,41.01
2022-08-16T11:46:45.209Z,40.67
2022-08-16T11:47:39.745Z,40.10
2022-08-16T11:48:41.982Z,39.70
2022-08-16T11:49:44.238Z,39.57
2022-08-16T11:50:47.721Z,39.95
2022-08-16T11:51:50.444Z,39.78
2022-08-16T11:52:52.970Z,39.51
2022-08-16T11:53:56.150Z,37.98
2022-08-16T11:55:00.080Z,39.28
2022-08-16T11:56:02.954Z,38.30
2022-08-16T11:57:08.945Z,39.01
2022-08-16T11:58:12.406Z,38.05
2022-08-16T11:59:19.070Z,37.78
2022-08-16T12:00:33.984Z,38.42
2022-08-16T12:01:58.926Z,38.16
2022-08-16T12:03:02.321Z,38.69
2022-08-16T12:04:04.625Z,39.54
2022-08-16T12:05:10.217Z,39.53
2022-08-16T12:06:24.892Z,40.53
2022-08-16T12:07:28.271Z,41.64
2022-08-16T12:08:31.861Z,42.45
2022-08-16T12:09:34.358Z,42.18
2022-08-16T12:10:45.112Z,42.88
2022-08-16T12:11:47.799Z,43.07
2022-08-16T12:12:57.898Z,43.36
2022-08-16T12:14:04.218Z,44.40
2022-08-16T12:15:07.690Z,44.98
2022-08-16T12:16:10.607Z,44.24
2022-08-16T12:17:14.269Z,45.26
2022-08-16T12:18:20.630Z,45.47
2022-08-16T12:19:35.292Z,44.99
2022-08-16T12:20:41.397Z,45.52
2022-08-16T12:21:59.368Z,44.15
2022-08-16T12:23:03.753Z,42.72
2022-08-16T12:24:06.129Z,42.93
2022-08-16T12:25:20.248Z,43.81
2022-08-16T12:26:23.604Z,43.51
2022-08-16T12:27:26.321Z,42.99
2022-08-16T12:28:54.019Z,42.38
2022-08-16T12:29:52.610Z,42.94
2022-08-16T12:30:54.834Z,43.78
2022-08-16T12:32:00.982Z,43.75
2022-08-16T12:33:25.280Z,43.62
2022-08-16T12:34:29.034Z,42.39
2022-08-16T12:35:33.919Z,42.30
2022-08-16T12:36:36.835Z,41.44
2022-08-16T12:37:39.644Z,40.42
2022-08-16T12:38:48.002Z,39.87
2022-08-16T12:39:56.308Z,41.41
2022-08-16T12:40:58.658Z,40.45
2022-08-16T12:42:02.986Z,41.46
2022-08-16T12:43:08.915Z,42.52
2022-08-16T12:44:11.306Z,42.19
2022-08-16T12:45:23.598Z,42.45
2022-08-16T12:46:26.471Z,42.10
2022-08-16T12:47:47.398Z,41.46
2022-08-16T12:48:59.376Z,41.60
2022-08-16T12:50:01.972Z,42.41
2022-08-16T12:51:13.727Z,42.29
2022-08-16T12:52:33.112Z,43.00
2022-08-16T12:53:40.003Z,43.58
2022-08-16T12:54:42.457Z,42.72
2022-08-16T12:55:44.934Z,42.80
2022-08-16T12:56:48.111Z,42.70
2022-08-16T12:57:58.850Z,41.98
2022-08-16T12:59:07.542Z,42.54
2022-08-16T13:00:26.546Z,42.30
2022-08-16T13:01:33.242Z,41.83
2022-08-16T13:02:36.340Z,41.52
2022-08-16T13:03:40.972Z,41.88
2022-08-16T13:04:43.231Z,40.96
2022-08-16T13:05:55.415Z,41.49
2022-08-16T13:08:04.843Z,42.53
2022-08-16T13:09:21.226Z,42.09
2022-08-16T13:10:38.053Z,42.26
2022-08-16T13:11:49.113Z,40.82
2022-08-16T13:12:57.768Z,41.59
2022-08-16T13:13:59.945Z,42.15
2022-08-16T13:15:02.283Z,41.18
2022-08-16T13:16:15.326Z,42.04
2022-08-16T13:17:26.362Z,42.38
2022-08-16T13:18:35.418Z,42.42
2022-08-16T13:20:06.068Z,41.86
2022-08-16T13:21:01.290Z,41.64
2022-08-16T13:22:05.335Z,41.32
2022-08-16T13:23:11.402Z,41.09
2022-08-16T13:24:13.638Z,41.09
2022-08-16T13:25:23.022Z,41.74
2022-08-16T13:26:26.687Z,40.97
2022-08-16T13:27:59.227Z,39.87
2022-08-16T13:28:51.477Z,39.02
2022-08-16T13:29:57.486Z,39.82
2022-08-16T13:31:00.918Z,40.40
2022-08-16T13:32:06.910Z,40.94
2022-08-16T13:33:15.775Z,41.27
2022-08-16T13:34:19.961Z,40.79
2022-08-16T13:35:23.401Z,40.68
2022-08-16T13:37:51.070Z,41.13
2022-08-16T13:38:53.914Z,40.98
2022-08-16T13:39:56.766Z,41.08
2022-08-16T13:40:59.707Z,40.52
2022-08-16T13:42:04.300Z,40.04
2022-08-16T13:43:07.110Z,39.91
2022-08-16T13:44:13.816Z,39.03
2022-08-16T13:45:19.346Z,38.62
2022-08-16T13:46:22.650Z,38.30
2022-08-16T13:47:25.594Z,38.51
2022-08-16T13:48:43.130Z,38.30
2022-08-16T13:49:47.022Z,38.01
2022-08-16T13:50:52.158Z,37.26
2022-08-16T13:51:54.531Z,36.72
2022-08-16T13:52:57.128Z,36.74
2022-08-16T13:54:05.782Z,37.43
2022-08-16T13:55:17.517Z,37.30
2022-08-16T13:56:21.899Z,37.53
2022-08-16T13:57:53.362Z,37.79
2022-08-16T13:58:55.124Z,37.73
2022-08-16T13:59:57.892Z,37.41
2022-08-16T14:01:01.719Z,37.62
2022-08-16T14:02:07.915Z,37.70
2022-08-16T14:03:10.211Z,37.04
2022-08-16T14:04:23.247Z,37.47
2022-08-16T14:05:29.015Z,37.14
2022-08-16T14:06:31.834Z,37.20
2022-08-16T14:07:40.682Z,37.33
2022-08-16T14:08:43.996Z,37.71
2022-08-16T14:09:55.292Z,37.89
2022-08-16T14:10:57.715Z,37.82
2022-08-16T14:12:09.519Z,38.44
2022-08-16T14:13:20.886Z,38.05
2022-08-16T14:14:28.855Z,38.53
2022-08-16T14:15:32.059Z,38.61
2022-08-16T14:16:35.226Z,38.79
2022-08-16T14:18:23.253Z,38.73
2022-08-16T14:18:59.834Z,39.31
2022-08-16T14:20:02.187Z,39.51
2022-08-16T14:21:05.090Z,39.58
2022-08-16T14:22:31.345Z,40.06
2022-08-16T14:23:39.557Z,39.65
2022-08-16T14:24:47.131Z,40.11
2022-08-16T14:25:53.774Z,40.01
2022-08-16T14:26:56.758Z,39.91
2022-08-16T14:27:59.010Z,39.81
2022-08-16T14:29:03.936Z,38.80
2022-08-16T14:30:09.294Z,39.51
2022-08-16T14:31:12.073Z,40.06
2022-08-16T14:32:32.694Z,40.14
2022-08-16T14:33:36.692Z,40.23
2022-08-16T14:34:38.996Z,40.06
2022-08-16T14:35:50.332Z,40.36
2022-08-16T14:36:53.558Z,40.00
2022-08-16T14:37:56.930Z,40.26
2022-08-16T14:39:00.853Z,40.16
2022-08-16T14:40:08.753Z,40.50
2022-08-16T14:41:11.125Z,40.74
2022-08-16T14:42:18.822Z,41.04
2022-08-16T14:43:21.001Z,40.21
2022-08-16T14:44:24.239Z,38.92
2022-08-16T14:45:29.115Z,39.02
2022-08-16T14:46:33.093Z,38.65
2022-08-16T14:47:38.424Z,38.93
2022-08-16T14:48:40.845Z,37.89
2022-08-16T14:49:43.762Z,37.95
2022-08-16T14:50:45.995Z,38.07
2022-08-16T14:51:48.847Z,38.26
2022-08-16T14:53:05.797Z,39.01
2022-08-16T14:54:11.396Z,38.93
2022-08-16T14:55:14.174Z,38.53
2022-08-16T14:56:38.169Z,38.62
2022-08-16T14:57:39.542Z,38.28
2022-08-16T14:58:41.811Z,38.93
2022-08-16T14:59:48.775Z,38.91
2022-08-16T15:00:51.837Z,39.34